createdAt,value
2018-10-19T00:01:33.756Z,16.61
2018-10-19T00:04:01.626Z,16.59
2018-10-19T00:06:29.483Z,16.57
2018-10-19T00:08:57.368Z,16.55
2018-10-19T00:11:25.436Z,16.54
2018-10-19T00:13:53.289Z,16.52
2018-10-19T00:16:21.087Z,16.49
2018-10-19T00:18:49.170Z,16.47
2018-10-19T00:21:16.982Z,16.43
2018-10-19T00:23:44.768Z,16.42
2018-10-19T00:26:12.815Z,16.38
2018-10-19T00:28:40.918Z,16.37
2018-10-19T00:31:08.799Z,16.34
2018-10-19T00:33:36.655Z,16.32
2018-10-19T00:36:04.827Z,16.27
2018-10-19T00:38:32.655Z,16.23
2018-10-19T00:41:00.467Z,16.21
2018-10-19T00:43:28.642Z,16.18
2018-10-19T00:49:06.724Z,16.08
2018-10-19T00:51:38.748Z,16.05
2018-10-19T00:54:06.772Z,16.02
2018-10-19T00:56:34.713Z,15.99
2018-10-19T00:59:02.925Z,15.95
2018-10-19T01:01:30.786Z,15.93
2018-10-19T01:03:58.638Z,15.90
2018-10-19T01:06:26.487Z,15.87
2018-10-19T01:08:54.580Z,15.85
2018-10-19T01:11:22.460Z,15.82
2018-10-19T01:13:50.398Z,15.80
2018-10-19T01:16:18.360Z,15.78
2018-10-19T01:18:46.232Z,15.77
2018-10-19T01:21:14.143Z,15.75
2018-10-19T01:23:41.993Z,15.74
2018-10-19T01:26:10.263Z,15.71
2018-10-19T01:28:38.090Z,15.70
2018-10-19T01:31:05.918Z,15.70
2018-10-19T01:33:33.715Z,15.67
2018-10-19T01:36:01.787Z,15.67
2018-10-19T01:38:29.632Z,15.65
2018-10-19T01:40:58.215Z,15.64
2018-10-19T01:43:26.167Z,15.62
2018-10-19T01:45:56.155Z,15.60
2018-10-19T01:48:24.419Z,15.56
2018-10-19T01:50:52.228Z,15.54
2018-10-19T01:53:20.096Z,15.52
2018-10-19T01:55:47.895Z,15.49
2018-10-19T01:58:15.901Z,15.46
2018-10-19T02:00:43.733Z,15.46
2018-10-19T02:03:11.693Z,15.43
2018-10-19T02:05:39.695Z,15.42
2018-10-19T02:08:08.830Z,15.40
2018-10-19T02:10:36.819Z,15.39
2018-10-19T02:13:05.446Z,15.38
2018-10-19T02:15:33.258Z,15.36
2018-10-19T02:18:01.257Z,15.34
2018-10-19T02:20:29.102Z,15.34
2018-10-19T02:22:57.020Z,15.31
2018-10-19T02:25:28.630Z,15.29
2018-10-19T02:27:56.643Z,15.28
2018-10-19T02:30:24.452Z,15.26
2018-10-19T02:32:52.269Z,15.25
2018-10-19T02:35:20.095Z,15.22
2018-10-19T02:37:48.043Z,15.14
2018-10-19T02:40:15.868Z,15.07
2018-10-19T02:42:43.843Z,14.97
2018-10-19T02:45:11.972Z,14.89
2018-10-19T02:47:39.917Z,14.80
2018-10-19T02:50:08.616Z,14.77
2018-10-19T02:52:37.031Z,14.70
2018-10-19T02:55:06.204Z,14.65
2018-10-19T02:57:33.991Z,14.61
2018-10-19T03:00:02.357Z,14.58
2018-10-19T03:02:30.184Z,14.54
2018-10-19T03:05:06.028Z,14.52
2018-10-19T03:07:37.121Z,14.49
2018-10-19T03:10:05.532Z,14.46
2018-10-19T03:12:33.419Z,14.41
2018-10-19T03:15:02.021Z,14.40
2018-10-19T03:17:30.088Z,14.38
2018-10-19T03:19:58.095Z,14.34
2018-10-19T03:22:26.069Z,14.31
2018-10-19T03:24:53.992Z,14.29
2018-10-19T03:27:21.861Z,14.28
2018-10-19T03:29:49.625Z,14.27
2018-10-19T03:32:17.451Z,14.26
2018-10-19T03:34:45.775Z,14.25
2018-10-19T03:37:13.593Z,14.23
2018-10-19T03:39:41.542Z,14.22
2018-10-19T03:42:09.335Z,14.21
2018-10-19T03:44:37.274Z,14.21
2018-10-19T03:47:05.492Z,14.20
2018-10-19T03:49:33.269Z,14.21
2018-10-19T03:52:01.158Z,14.21
2018-10-19T03:54:29.138Z,14.19
2018-10-19T03:56:57.082Z,14.21
2018-10-19T03:59:25.036Z,14.22
2018-10-19T04:01:53.006Z,14.21
2018-10-19T04:04:20.991Z,14.24
2018-10-19T04:06:48.984Z,14.25
2018-10-19T04:09:17.055Z,14.26
2018-10-19T04:11:47.639Z,14.26
2018-10-19T04:14:15.620Z,14.28
2018-10-19T04:16:43.655Z,14.29
2018-10-19T04:19:11.671Z,14.31
2018-10-19T04:21:39.667Z,14.31
2018-10-19T04:24:07.509Z,14.32
2018-10-19T04:26:35.903Z,14.32
2018-10-19T04:29:04.184Z,14.29
2018-10-19T04:31:32.051Z,14.26
2018-10-19T04:33:59.994Z,14.24
2018-10-19T04:36:27.947Z,14.24
2018-10-19T04:38:55.821Z,14.21
2018-10-19T04:41:23.716Z,14.21
2018-10-19T04:43:51.755Z,14.20
2018-10-19T04:46:19.683Z,14.18
2018-10-19T04:48:47.759Z,14.18
2018-10-19T04:51:15.921Z,14.16
2018-10-19T04:53:44.109Z,14.14
2018-10-19T04:56:11.903Z,14.13
2018-10-19T04:58:40.083Z,14.11
2018-10-19T05:01:07.974Z,14.09
2018-10-19T05:03:35.911Z,14.08
2018-10-19T05:06:04.016Z,14.06
2018-10-19T05:08:31.882Z,14.05
2018-10-19T05:10:59.746Z,14.06
2018-10-19T05:13:27.508Z,14.07
2018-10-19T05:15:55.309Z,14.07
2018-10-19T05:18:23.075Z,14.08
2018-10-19T05:20:51.070Z,14.08
2018-10-19T05:23:19.345Z,14.07
2018-10-19T05:25:47.046Z,14.06
2018-10-19T05:28:14.916Z,14.06
2018-10-19T05:30:42.919Z,14.08
2018-10-19T05:33:10.879Z,14.08
2018-10-19T05:35:38.840Z,14.10
2018-10-19T05:38:06.864Z,14.12
2018-10-19T05:40:34.623Z,14.13
2018-10-19T05:43:02.770Z,14.14
2018-10-19T05:45:30.662Z,14.16
2018-10-19T05:48:01.643Z,14.17
2018-10-19T05:50:29.428Z,14.19
2018-10-19T05:52:57.648Z,14.20
2018-10-19T05:55:25.394Z,14.24
2018-10-19T05:57:53.269Z,14.26
2018-10-19T06:00:21.154Z,14.27
2018-10-19T06:02:48.954Z,14.30
2018-10-19T06:05:17.046Z,14.31
2018-10-19T06:07:44.828Z,14.33
2018-10-19T06:10:12.931Z,14.35
2018-10-19T06:12:40.840Z,14.38
2018-10-19T06:15:09.162Z,14.40
2018-10-19T06:17:37.091Z,14.43
2018-10-19T06:20:05.558Z,14.43
2018-10-19T06:22:33.385Z,14.46
2018-10-19T06:25:01.218Z,14.47
2018-10-19T06:27:29.011Z,14.50
2018-10-19T06:29:56.992Z,14.50
2018-10-19T06:32:28.511Z,14.53
2018-10-19T06:34:56.387Z,14.54
2018-10-19T06:37:24.225Z,14.57
2018-10-19T06:39:52.128Z,14.60
2018-10-19T06:42:20.139Z,14.61
2018-10-19T06:44:47.976Z,14.64
2018-10-19T06:47:15.879Z,14.65
2018-10-19T06:49:43.657Z,14.68
2018-10-19T06:52:11.459Z,14.70
2018-10-19T06:54:39.231Z,14.72
2018-10-19T06:57:07.044Z,14.75
2018-10-19T06:59:35.301Z,14.78
2018-10-19T07:02:03.183Z,14.79
2018-10-19T07:04:30.975Z,14.79
2018-10-19T07:06:58.820Z,14.80
2018-10-19T07:09:26.623Z,14.82
2018-10-19T07:11:54.546Z,14.83
2018-10-19T07:14:22.403Z,14.86
2018-10-19T07:16:50.431Z,14.89
2018-10-19T07:19:18.240Z,14.91
2018-10-19T07:21:46.122Z,14.94
2018-10-19T07:24:14.075Z,14.96
2018-10-19T07:26:41.881Z,14.97
2018-10-19T07:29:09.933Z,14.95
2018-10-19T07:31:37.877Z,14.92
2018-10-19T07:34:05.738Z,14.90
2018-10-19T07:36:33.656Z,14.91
2018-10-19T07:39:01.378Z,14.92
2018-10-19T07:41:29.228Z,14.94
2018-10-19T07:43:57.143Z,14.99
2018-10-19T07:46:24.935Z,15.02
2018-10-19T07:48:52.839Z,15.06
2018-10-19T07:51:20.650Z,15.11
2018-10-19T07:53:48.566Z,15.15
2018-10-19T07:56:16.561Z,15.20
2018-10-19T07:58:44.319Z,15.26
2018-10-19T08:01:12.280Z,15.32
2018-10-19T08:03:40.170Z,15.37
2018-10-19T08:06:08.183Z,15.42
2018-10-19T08:08:36.156Z,15.46
2018-10-19T08:11:04.368Z,15.51
2018-10-19T08:13:37.861Z,15.55
2018-10-19T08:16:05.667Z,15.56
2018-10-19T08:18:33.722Z,15.59
2018-10-19T08:21:01.688Z,15.64
2018-10-19T08:23:29.516Z,15.68
2018-10-19T08:26:07.928Z,15.71
2018-10-19T08:28:35.745Z,15.74
2018-10-19T08:31:03.968Z,15.76
2018-10-19T08:33:32.591Z,15.77
2018-10-19T08:36:00.395Z,15.78
2018-10-19T08:38:28.228Z,15.80
2018-10-19T08:40:56.128Z,15.78
2018-10-19T08:43:23.954Z,15.75
2018-10-19T08:45:51.772Z,15.68
2018-10-19T08:48:19.667Z,15.59
2018-10-19T08:50:47.509Z,15.57
2018-10-19T08:53:15.410Z,15.54
2018-10-19T08:55:43.167Z,15.55
2018-10-19T08:58:11.072Z,15.56
2018-10-19T09:00:39.533Z,15.57
2018-10-19T09:03:07.357Z,15.60
2018-10-19T09:05:35.244Z,15.61
2018-10-19T09:08:03.107Z,15.62
2018-10-19T09:10:31.234Z,15.66
2018-10-19T09:12:59.253Z,15.71
2018-10-19T09:15:27.080Z,15.77
2018-10-19T09:17:54.960Z,15.83
2018-10-19T09:20:23.071Z,15.89
2018-10-19T09:22:52.254Z,15.94
2018-10-19T09:25:20.472Z,15.99
2018-10-19T09:27:48.440Z,16.04
2018-10-19T09:30:16.374Z,16.09
2018-10-19T09:32:44.305Z,16.17
2018-10-19T09:35:12.309Z,16.28
2018-10-19T09:37:40.028Z,16.42
2018-10-19T09:40:08.145Z,16.56
2018-10-19T09:42:36.115Z,16.72
2018-10-19T09:45:05.180Z,16.88
2018-10-19T09:47:33.541Z,17.08
2018-10-19T09:50:01.421Z,17.27
2018-10-19T09:52:29.808Z,17.46
2018-10-19T09:55:00.919Z,17.65
2018-10-19T09:57:28.827Z,17.84
2018-10-19T09:59:56.634Z,18.03
2018-10-19T10:02:24.544Z,18.22
2018-10-19T10:04:52.459Z,18.40
2018-10-19T10:07:20.244Z,18.60
2018-10-19T10:09:48.085Z,18.75
2018-10-19T10:12:16.003Z,18.96
2018-10-19T10:14:43.888Z,19.18
2018-10-19T10:17:11.761Z,19.40
2018-10-19T10:19:39.887Z,19.63
2018-10-19T10:22:07.825Z,19.88
2018-10-19T10:24:35.685Z,20.08
2018-10-19T10:27:03.500Z,20.26
2018-10-19T10:29:31.399Z,20.45
2018-10-19T10:31:59.445Z,20.69
2018-10-19T10:34:27.900Z,21.03
2018-10-19T10:36:55.825Z,21.35
2018-10-19T10:39:23.925Z,21.61
2018-10-19T10:41:51.962Z,21.84
2018-10-19T10:44:19.867Z,22.03
2018-10-19T10:46:47.837Z,22.24
2018-10-19T10:49:15.983Z,22.53
2018-10-19T10:51:43.917Z,22.81
2018-10-19T10:54:11.881Z,23.04
2018-10-19T10:56:39.709Z,23.25
2018-10-19T10:59:07.901Z,23.48
2018-10-19T11:01:35.771Z,23.72
2018-10-19T11:04:03.664Z,23.94
2018-10-19T11:06:31.479Z,24.13
2018-10-19T11:08:59.411Z,24.31
2018-10-19T11:11:27.250Z,24.49
2018-10-19T11:13:55.411Z,24.69
2018-10-19T11:16:23.271Z,24.88
2018-10-19T11:18:51.066Z,25.05
2018-10-19T11:21:18.926Z,25.19
2018-10-19T11:23:46.734Z,25.39
2018-10-19T11:26:14.617Z,25.63
2018-10-19T11:28:42.423Z,25.87
2018-10-19T11:31:10.258Z,26.09
2018-10-19T11:33:42.119Z,26.36
2018-10-19T11:36:09.970Z,26.55
2018-10-19T11:38:37.817Z,26.79
2018-10-19T11:41:05.644Z,27.00
2018-10-19T11:43:33.820Z,27.18
2018-10-19T11:46:01.665Z,27.34
2018-10-19T11:48:29.469Z,27.46
2018-10-19T11:50:57.317Z,27.54
2018-10-19T11:53:25.188Z,27.64
2018-10-19T11:55:53.050Z,27.77
2018-10-19T11:58:20.869Z,27.84
2018-10-19T12:00:48.764Z,27.91
2018-10-19T12:03:16.587Z,28.01
2018-10-19T12:05:44.435Z,28.13
2018-10-19T12:08:12.239Z,28.26
2018-10-19T12:10:40.111Z,28.38
2018-10-19T12:13:07.976Z,28.52
2018-10-19T12:15:36.007Z,28.70
2018-10-19T12:18:03.983Z,28.89
2018-10-19T12:20:31.883Z,29.10
2018-10-19T12:22:59.680Z,29.26
2018-10-19T12:25:27.517Z,29.37
2018-10-19T12:27:55.334Z,29.47
2018-10-19T12:30:23.122Z,29.56
2018-10-19T12:32:51.499Z,29.62
2018-10-19T12:35:23.297Z,29.73
2018-10-19T12:37:51.109Z,29.86
2018-10-19T12:40:19.517Z,29.95
2018-10-19T12:42:47.545Z,30.01
2018-10-19T12:47:16.899Z,30.10
2018-10-19T12:49:45.019Z,30.17
2018-10-19T12:52:12.887Z,30.21
2018-10-19T12:54:40.888Z,30.27
2018-10-19T12:57:08.894Z,30.37
2018-10-19T12:59:36.907Z,30.44
2018-10-19T13:02:09.365Z,30.49
2018-10-19T13:04:37.399Z,30.51
2018-10-19T13:07:06.206Z,30.51
2018-10-19T13:09:34.165Z,30.55
2018-10-19T13:12:02.486Z,30.55
2018-10-19T13:14:30.362Z,30.51
2018-10-19T13:16:58.214Z,30.48
2018-10-19T13:19:26.033Z,30.47
2018-10-19T13:21:54.194Z,30.47
2018-10-19T13:24:22.062Z,30.41
2018-10-19T13:26:51.461Z,30.37
2018-10-19T13:29:19.710Z,30.35
2018-10-19T13:31:47.545Z,30.37
2018-10-19T13:34:15.452Z,30.38
2018-10-19T13:36:43.363Z,30.38
2018-10-19T13:39:12.466Z,30.43
2018-10-19T13:41:40.548Z,30.47
2018-10-19T13:44:11.635Z,30.46
2018-10-19T13:46:39.431Z,30.40
2018-10-19T13:49:07.294Z,30.34
2018-10-19T13:51:35.595Z,30.32
2018-10-19T13:54:03.819Z,30.24
2018-10-19T13:56:31.968Z,30.15
2018-10-19T13:59:00.034Z,30.06
2018-10-19T14:01:27.807Z,29.96
2018-10-19T14:03:55.609Z,29.87
2018-10-19T14:06:23.476Z,29.80
2018-10-19T14:08:51.319Z,29.69
2018-10-19T14:11:19.257Z,29.61
2018-10-19T14:13:47.072Z,29.53
2018-10-19T14:16:14.971Z,29.45
2018-10-19T14:18:42.898Z,29.35
2018-10-19T14:21:10.783Z,29.28
2018-10-19T14:23:38.507Z,29.20
2018-10-19T14:26:06.346Z,29.12
2018-10-19T14:28:34.133Z,29.03
2018-10-19T14:31:02.195Z,28.93
2018-10-19T14:33:30.136Z,28.82
2018-10-19T14:35:57.900Z,28.75
2018-10-19T14:38:25.719Z,28.68
2018-10-19T14:40:53.505Z,28.58
2018-10-19T14:43:21.371Z,28.49
2018-10-19T14:45:49.163Z,28.41
2018-10-19T14:48:17.019Z,28.33
2018-10-19T14:50:48.333Z,28.28
2018-10-19T14:53:16.194Z,28.23
2018-10-19T14:55:43.951Z,28.19
2018-10-19T14:58:14.309Z,28.10
2018-10-19T15:00:42.386Z,27.99
2018-10-19T15:03:12.342Z,27.88
2018-10-19T15:05:42.197Z,27.76
2018-10-19T15:08:09.999Z,27.63
2018-10-19T15:10:38.032Z,27.49
2018-10-19T15:13:05.604Z,27.39
2018-10-19T15:15:33.350Z,27.27
2018-10-19T15:18:01.246Z,27.15
2018-10-19T15:20:29.011Z,27.02
2018-10-19T15:22:56.903Z,26.90
2018-10-19T15:25:24.675Z,26.81
2018-10-19T15:27:52.445Z,26.68
2018-10-19T15:30:20.328Z,26.58
2018-10-19T15:32:48.041Z,26.51
2018-10-19T15:35:15.823Z,26.43
2018-10-19T15:37:43.673Z,26.32
2018-10-19T15:40:11.770Z,26.20
2018-10-19T15:42:39.759Z,26.06
2018-10-19T15:45:10.450Z,25.95
2018-10-19T15:47:38.439Z,25.80
2018-10-19T15:50:07.207Z,25.69
2018-10-19T15:52:35.134Z,25.58
2018-10-19T15:55:04.911Z,25.47
2018-10-19T15:57:32.715Z,25.35
2018-10-19T16:00:00.920Z,25.23
2018-10-19T16:02:32.263Z,25.17
2018-10-19T16:05:00.334Z,25.08
2018-10-19T16:07:28.284Z,24.99
2018-10-19T16:09:56.108Z,24.91
2018-10-19T16:12:23.895Z,24.81
2018-10-19T16:14:52.066Z,24.70
2018-10-19T16:17:19.824Z,24.60
2018-10-19T16:19:47.594Z,24.48
2018-10-19T16:22:15.664Z,24.37
2018-10-19T16:24:43.454Z,24.25
2018-10-19T16:27:11.307Z,24.17
2018-10-19T16:29:39.019Z,24.07
2018-10-19T16:32:06.826Z,23.96
2018-10-19T16:34:34.721Z,23.87
2018-10-19T16:37:02.952Z,23.78
2018-10-19T16:39:30.924Z,23.68
2018-10-19T16:41:58.881Z,23.59
2018-10-19T16:44:26.646Z,23.51
2018-10-19T16:46:54.440Z,23.41
2018-10-19T16:49:22.234Z,23.30
2018-10-19T16:51:50.137Z,23.18
2018-10-19T16:54:17.989Z,23.07
2018-10-19T16:56:45.860Z,22.97
2018-10-19T16:59:13.652Z,22.86
2018-10-19T17:01:41.507Z,22.76
2018-10-19T17:04:13.386Z,22.63
2018-10-19T17:06:41.171Z,22.51
2018-10-19T17:09:11.492Z,22.37
2018-10-19T17:11:39.502Z,22.23
2018-10-19T17:14:07.314Z,22.11
2018-10-19T17:16:35.397Z,21.99
2018-10-19T17:19:03.291Z,21.87
2018-10-19T17:21:31.171Z,21.70
2018-10-19T17:23:59.070Z,21.50
2018-10-19T17:26:27.664Z,21.31
2018-10-19T17:28:55.602Z,21.16
2018-10-19T17:31:23.404Z,21.05
2018-10-19T17:33:51.452Z,20.95
2018-10-19T17:36:19.168Z,20.86
2018-10-19T17:38:47.367Z,20.77
2018-10-19T17:41:15.548Z,20.68
2018-10-19T17:43:43.382Z,20.58
2018-10-19T17:46:11.127Z,20.44
2018-10-19T17:48:38.995Z,20.32
2018-10-19T17:51:06.872Z,20.22
2018-10-19T17:53:34.753Z,20.14
2018-10-19T17:56:02.792Z,20.05
2018-10-19T17:58:30.642Z,19.97
2018-10-19T18:00:58.557Z,19.90
2018-10-19T18:03:26.416Z,19.83
2018-10-19T18:05:55.131Z,19.73
2018-10-19T18:08:22.943Z,19.65
2018-10-19T18:10:50.846Z,19.55
2018-10-19T18:13:18.723Z,19.48
2018-10-19T18:15:46.659Z,19.38
2018-10-19T18:18:14.384Z,19.30
2018-10-19T18:20:42.255Z,19.21
2018-10-19T18:23:10.346Z,19.14
2018-10-19T18:25:38.187Z,19.04
2018-10-19T18:28:06.006Z,18.94
2018-10-19T18:30:33.836Z,18.84
2018-10-19T18:33:01.695Z,18.75
2018-10-19T18:35:29.673Z,18.69
2018-10-19T18:37:57.741Z,18.60
2018-10-19T18:40:25.603Z,18.52
2018-10-19T18:42:53.365Z,18.46
2018-10-19T18:45:21.314Z,18.40
2018-10-19T18:47:49.117Z,18.35
2018-10-19T18:50:17.009Z,18.29
2018-10-19T18:52:44.807Z,18.24
2018-10-19T18:55:12.625Z,18.19
2018-10-19T18:57:40.462Z,18.12
2018-10-19T19:00:10.236Z,18.05
2018-10-19T19:02:38.215Z,17.99
2018-10-19T19:05:06.093Z,17.91
2018-10-19T19:07:37.791Z,17.86
2018-10-19T19:10:12.080Z,17.77
2018-10-19T19:12:39.933Z,17.68
2018-10-19T19:15:08.313Z,17.61
2018-10-19T19:17:37.342Z,17.54
2018-10-19T19:20:12.454Z,17.47
2018-10-19T19:22:40.840Z,17.41
2018-10-19T19:25:14.682Z,17.35
2018-10-19T19:27:42.646Z,17.29
2018-10-19T19:30:10.507Z,17.22
2018-10-19T19:32:43.050Z,17.16
2018-10-19T19:35:10.891Z,17.12
2018-10-19T19:37:38.866Z,17.09
2018-10-19T19:40:06.739Z,17.06
2018-10-19T19:42:40.283Z,17.03
2018-10-19T19:45:08.091Z,17.00
2018-10-19T19:47:41.739Z,16.98
2018-10-19T19:50:09.610Z,16.92
2018-10-19T19:52:37.431Z,16.85
2018-10-19T19:55:05.772Z,16.79
2018-10-19T19:57:33.596Z,16.75
2018-10-19T20:00:01.809Z,16.71
2018-10-19T20:02:29.768Z,16.65
2018-10-19T20:04:57.600Z,16.59
2018-10-19T20:07:25.835Z,16.54
2018-10-19T20:09:53.646Z,16.48
2018-10-19T20:12:21.572Z,16.41
2018-10-19T20:14:49.297Z,16.36
2018-10-19T20:17:17.074Z,16.32
2018-10-19T20:19:44.903Z,16.30
2018-10-19T20:22:12.732Z,16.27
2018-10-19T20:24:40.548Z,16.23
2018-10-19T20:27:08.356Z,16.21
2018-10-19T20:29:36.274Z,16.17
2018-10-19T20:32:04.236Z,16.14
2018-10-19T20:34:32.044Z,16.10
2018-10-19T20:36:59.959Z,16.07
2018-10-19T20:39:27.779Z,16.01
2018-10-19T20:41:55.580Z,15.98
2018-10-19T20:44:23.399Z,15.95
2018-10-19T20:46:51.204Z,15.94
2018-10-19T20:49:19.031Z,15.91
2018-10-19T20:51:47.131Z,15.89
2018-10-19T20:54:15.129Z,15.87
2018-10-19T20:56:43.006Z,15.86
2018-10-19T20:59:10.792Z,15.82
2018-10-19T21:01:39.632Z,15.80
2018-10-19T21:04:07.407Z,15.76
2018-10-19T21:06:35.247Z,15.74
2018-10-19T21:09:04.517Z,15.71
2018-10-19T21:11:32.312Z,15.69
2018-10-19T21:14:00.151Z,15.63
2018-10-19T21:16:28.376Z,15.57
2018-10-19T21:18:56.251Z,15.50
2018-10-19T21:21:23.988Z,15.46
2018-10-19T21:23:51.776Z,15.42
2018-10-19T21:26:21.059Z,15.38
2018-10-19T21:28:48.936Z,15.30
2018-10-19T21:31:16.751Z,15.23
2018-10-19T21:33:44.648Z,15.16
2018-10-19T21:36:12.509Z,15.12
2018-10-19T21:38:40.227Z,15.04
2018-10-19T21:41:08.261Z,14.96
2018-10-19T21:43:36.029Z,14.93
2018-10-19T21:46:03.858Z,14.91
2018-10-19T21:48:31.666Z,14.88
2018-10-19T21:50:59.571Z,14.85
2018-10-19T21:53:27.409Z,14.81
2018-10-19T21:55:55.214Z,14.78
2018-10-19T21:58:22.999Z,14.71
2018-10-19T22:00:50.791Z,14.70
2018-10-19T22:03:18.602Z,14.69
2018-10-19T22:05:46.419Z,14.69
2018-10-19T22:08:14.297Z,14.70
2018-10-19T22:10:42.114Z,14.69
2018-10-19T22:13:09.922Z,14.70
2018-10-19T22:15:38.456Z,14.70
2018-10-19T22:18:06.339Z,14.70
2018-10-19T22:20:34.216Z,14.70
2018-10-19T22:23:02.302Z,14.68
2018-10-19T22:25:30.056Z,14.68
2018-10-19T22:27:57.981Z,14.64
2018-10-19T22:30:25.795Z,14.63
2018-10-19T22:32:53.607Z,14.62
2018-10-19T22:35:22.000Z,14.60
2018-10-19T22:37:50.272Z,14.58
2018-10-19T22:40:18.160Z,14.55
2018-10-19T22:42:45.959Z,14.53
2018-10-19T22:45:13.868Z,14.52
2018-10-19T22:47:41.699Z,14.50
2018-10-19T22:50:09.513Z,14.48
2018-10-19T22:52:37.367Z,14.46
2018-10-19T22:55:05.587Z,14.44
2018-10-19T22:57:33.441Z,14.39
2018-10-19T23:00:01.251Z,14.35
2018-10-19T23:02:29.464Z,14.32
2018-10-19T23:04:57.307Z,14.25
2018-10-19T23:07:25.133Z,14.15
2018-10-19T23:09:52.972Z,14.10
2018-10-19T23:12:24.568Z,14.03
2018-10-19T23:14:52.399Z,13.97
2018-10-19T23:17:20.244Z,13.88
2018-10-19T23:19:48.055Z,13.82
2018-10-19T23:22:15.845Z,13.78
2018-10-19T23:24:43.704Z,13.78
2018-10-19T23:27:11.631Z,13.79
2018-10-19T23:29:39.931Z,13.79
2018-10-19T23:32:07.841Z,13.80
2018-10-19T23:34:35.758Z,13.82
2018-10-19T23:37:03.705Z,13.82
2018-10-19T23:39:31.405Z,13.82
2018-10-19T23:41:59.199Z,13.80
2018-10-19T23:44:26.992Z,13.79
2018-10-19T23:46:54.833Z,13.78
2018-10-19T23:49:22.555Z,13.78
2018-10-19T23:51:50.356Z,13.77
2018-10-19T23:54:18.173Z,13.76
2018-10-19T23:56:45.943Z,13.76
2018-10-19T23:59:13.796Z,13.75
